sensor_id;sensor_type;location;lat;lon;timestamp;pressure;altitude;pressure_sealevel;temperature;humidity
10652;BME280;5374;42.742;23.266;2023-02-15T00:02:31;96685.31;;;2.40;82.95
10652;BME280;5374;42.742;23.266;2023-02-15T00:05:19;96683.50;;;2.33;82.85
10652;BME280;5374;42.742;23.266;2023-02-15T00:08:06;96696.28;;;2.36;83.18
10652;BME280;5374;42.742;23.266;2023-02-15T00:10:53;96683.88;;;2.22;84.65
10652;BME280;5374;42.742;23.266;2023-02-15T00:13:43;96684.22;;;2.19;86.52
10652;BME280;5374;42.742;23.266;2023-02-15T00:16:32;96682.56;;;2.10;87.58
10652;BME280;5374;42.742;23.266;2023-02-15T00:19:21;96697.16;;;2.20;88.50
10652;BME280;5374;42.742;23.266;2023-02-15T00:22:08;96690.91;;;2.13;89.38
10652;BME280;5374;42.742;23.266;2023-02-15T00:24:55;96703.03;;;2.14;89.50
10652;BME280;5374;42.742;23.266;2023-02-15T00:27:44;96690.75;;;2.15;90.45
10652;BME280;5374;42.742;23.266;2023-02-15T00:30:31;96701.91;;;2.17;90.27
10652;BME280;5374;42.742;23.266;2023-02-15T00:33:19;96704.03;;;2.21;89.62
10652;BME280;5374;42.742;23.266;2023-02-15T00:36:08;96701.72;;;2.18;88.67
10652;BME280;5374;42.742;23.266;2023-02-15T00:38:55;96703.19;;;2.21;88.31
10652;BME280;5374;42.742;23.266;2023-02-15T00:41:43;96701.91;;;2.17;88.01
10652;BME280;5374;42.742;23.266;2023-02-15T00:44:30;96710.75;;;2.16;88.05
10652;BME280;5374;42.742;23.266;2023-02-15T00:47:17;96679.47;;;2.06;87.93
10652;BME280;5374;42.742;23.266;2023-02-15T00:50:06;96654.13;;;1.90;87.83
10652;BME280;5374;42.742;23.266;2023-02-15T00:52:54;96708.44;;;2.21;87.30
10652;BME280;5374;42.742;23.266;2023-02-15T00:55:41;96702.06;;;2.23;87.30
10652;BME280;5374;42.742;23.266;2023-02-15T00:58:28;96701.69;;;2.26;86.17
10652;BME280;5374;42.742;23.266;2023-02-15T01:01:17;96690.44;;;2.18;86.17
10652;BME280;5374;42.742;23.266;2023-02-15T01:04:05;96697.63;;;2.24;86.21
10652;BME280;5374;42.742;23.266;2023-02-15T01:06:53;96696.00;;;2.23;86.49
10652;BME280;5374;42.742;23.266;2023-02-15T01:09:40;96703.69;;;2.24;86.50
10652;BME280;5374;42.742;23.266;2023-02-15T01:12:30;96690.75;;;2.23;86.38
10652;BME280;5374;42.742;23.266;2023-02-15T01:15:19;96688.97;;;2.23;85.52
10652;BME280;5374;42.742;23.266;2023-02-15T01:18:06;96689.78;;;2.24;85.30
10652;BME280;5374;42.742;23.266;2023-02-15T01:20:53;96687.81;;;2.10;85.39
10652;BME280;5374;42.742;23.266;2023-02-15T01:23:42;96677.00;;;2.21;85.56
10652;BME280;5374;42.742;23.266;2023-02-15T01:26:29;96675.84;;;2.07;86.19
10652;BME280;5374;42.742;23.266;2023-02-15T01:29:16;96681.44;;;2.04;87.31
10652;BME280;5374;42.742;23.266;2023-02-15T01:32:04;96684.41;;;2.01;88.64
10652;BME280;5374;42.742;23.266;2023-02-15T01:34:51;96679.63;;;2.04;88.80
10652;BME280;5374;42.742;23.266;2023-02-15T01:37:38;96678.19;;;2.02;89.68
10652;BME280;5374;42.742;23.266;2023-02-15T01:40:26;96675.72;;;2.00;89.89
10652;BME280;5374;42.742;23.266;2023-02-15T01:43:14;96663.94;;;1.96;89.66
10652;BME280;5374;42.742;23.266;2023-02-15T01:46:01;96681.63;;;2.02;90.28
10652;BME280;5374;42.742;23.266;2023-02-15T01:48:54;96667.22;;;1.98;90.73
10652;BME280;5374;42.742;23.266;2023-02-15T01:51:43;96666.38;;;2.06;90.14
10652;BME280;5374;42.742;23.266;2023-02-15T01:54:33;96661.81;;;2.00;91.03
10652;BME280;5374;42.742;23.266;2023-02-15T01:57:26;96657.72;;;1.97;91.80
10652;BME280;5374;42.742;23.266;2023-02-15T02:00:17;96652.16;;;1.92;93.64
10652;BME280;5374;42.742;23.266;2023-02-15T02:03:05;96659.03;;;1.85;95.61
10652;BME280;5374;42.742;23.266;2023-02-15T02:05:52;96653.47;;;1.88;97.44
10652;BME280;5374;42.742;23.266;2023-02-15T02:08:41;96649.84;;;1.81;98.70
10652;BME280;5374;42.742;23.266;2023-02-15T02:11:28;96656.72;;;1.82;100.00
10652;BME280;5374;42.742;23.266;2023-02-15T02:14:17;96655.09;;;1.81;100.00
10652;BME280;5374;42.742;23.266;2023-02-15T02:17:07;96665.41;;;1.83;100.00
10652;BME280;5374;42.742;23.266;2023-02-15T02:23:34;96591.31;;;1.42;99.66
10652;BME280;5374;42.742;23.266;2023-02-15T02:26:54;96677.19;;;1.95;96.17
10652;BME280;5374;42.742;23.266;2023-02-15T02:33:31;96669.50;;;1.93;93.25
10652;BME280;5374;42.742;23.266;2023-02-15T02:36:25;96680.97;;;1.92;93.73
10652;BME280;5374;42.742;23.266;2023-02-15T02:39:23;96674.75;;;1.93;93.20
10652;BME280;5374;42.742;23.266;2023-02-15T02:42:18;96675.72;;;1.92;92.87
10652;BME280;5374;42.742;23.266;2023-02-15T02:45:09;96676.72;;;1.91;93.10
10652;BME280;5374;42.742;23.266;2023-02-15T02:48:03;96671.31;;;1.93;92.59
10652;BME280;5374;42.742;23.266;2023-02-15T02:50:54;96682.94;;;1.98;92.74
10652;BME280;5374;42.742;23.266;2023-02-15T02:53:42;96676.53;;;2.01;93.07
10652;BME280;5374;42.742;23.266;2023-02-15T02:56:33;96673.44;;;1.97;92.98
10652;BME280;5374;42.742;23.266;2023-02-15T02:59:27;96686.34;;;2.07;92.62
10652;BME280;5374;42.742;23.266;2023-02-15T03:02:19;96690.09;;;2.13;92.44
10652;BME280;5374;42.742;23.266;2023-02-15T03:05:10;96687.97;;;2.16;92.77
10652;BME280;5374;42.742;23.266;2023-02-15T03:08:03;96687.31;;;2.14;93.53
10652;BME280;5374;42.742;23.266;2023-02-15T03:10:54;96697.47;;;2.25;93.33
10652;BME280;5374;42.742;23.266;2023-02-15T03:13:42;96689.91;;;2.30;93.36
10652;BME280;5374;42.742;23.266;2023-02-15T03:16:31;96693.81;;;2.34;93.64
10652;BME280;5374;42.742;23.266;2023-02-15T03:19:22;96677.00;;;2.21;93.85
10652;BME280;5374;42.742;23.266;2023-02-15T03:22:14;96698.38;;;2.49;92.90
10652;BME280;5374;42.742;23.266;2023-02-15T03:25:09;96676.13;;;2.45;92.12
10652;BME280;5374;42.742;23.266;2023-02-15T03:28:01;96691.81;;;2.53;92.48
10652;BME280;5374;42.742;23.266;2023-02-15T03:30:53;96671.53;;;2.47;92.40
10652;BME280;5374;42.742;23.266;2023-02-15T03:33:44;96696.38;;;2.59;92.33
10652;BME280;5374;42.742;23.266;2023-02-15T03:36:39;96698.19;;;2.66;92.29
10652;BME280;5374;42.742;23.266;2023-02-15T03:39:32;96700.63;;;2.68;92.26
10652;BME280;5374;42.742;23.266;2023-02-15T03:42:26;96697.84;;;2.69;92.87
10652;BME280;5374;42.742;23.266;2023-02-15T03:45:18;96692.94;;;2.66;93.31
10652;BME280;5374;42.742;23.266;2023-02-15T03:48:10;96683.75;;;2.70;93.79
10652;BME280;5374;42.742;23.266;2023-02-15T03:51:01;96673.94;;;2.64;93.78
10652;BME280;5374;42.742;23.266;2023-02-15T03:54:08;96673.59;;;2.67;93.80
10652;BME280;5374;42.742;23.266;2023-02-15T03:56:57;96679.31;;;2.71;94.56
10652;BME280;5374;42.742;23.266;2023-02-15T04:00:00;96685.00;;;2.74;95.02
10652;BME280;5374;42.742;23.266;2023-02-15T04:03:11;96689.63;;;2.72;95.29
10652;BME280;5374;42.742;23.266;2023-02-15T04:06:01;96693.84;;;2.82;95.23
10652;BME280;5374;42.742;23.266;2023-02-15T04:08:48;96701.03;;;2.88;93.96
10652;BME280;5374;42.742;23.266;2023-02-15T04:11:53;96704.66;;;2.87;94.47
10652;BME280;5374;42.742;23.266;2023-02-15T04:14:42;96699.41;;;2.87;95.00
10652;BME280;5374;42.742;23.266;2023-02-15T04:17:48;96677.47;;;2.80;93.97
10652;BME280;5374;42.742;23.266;2023-02-15T04:20:37;96713.44;;;3.02;93.33
10652;BME280;5374;42.742;23.266;2023-02-15T04:23:42;96722.28;;;3.01;93.64
10652;BME280;5374;42.742;23.266;2023-02-15T04:26:46;96723.75;;;3.03;93.37
10652;BME280;5374;42.742;23.266;2023-02-15T04:29:34;96728.53;;;3.00;94.24
10652;BME280;5374;42.742;23.266;2023-02-15T04:32:22;96731.50;;;2.97;94.98
10652;BME280;5374;42.742;23.266;2023-02-15T04:35:11;96723.16;;;2.93;94.90
10652;BME280;5374;42.742;23.266;2023-02-15T04:37:58;96736.22;;;3.01;94.70
10652;BME280;5374;42.742;23.266;2023-02-15T04:40:49;96728.53;;;3.00;94.32
10652;BME280;5374;42.742;23.266;2023-02-15T04:43:37;96727.84;;;3.06;93.82
10652;BME280;5374;42.742;23.266;2023-02-15T04:46:24;96703.97;;;2.93;93.73
10652;BME280;5374;42.742;23.266;2023-02-15T04:49:11;96727.22;;;3.04;94.08
10652;BME280;5374;42.742;23.266;2023-02-15T04:51:59;96728.50;;;3.08;93.98
10652;BME280;5374;42.742;23.266;2023-02-15T04:54:47;96722.28;;;3.01;94.35
10652;BME280;5374;42.742;23.266;2023-02-15T04:57:34;96734.88;;;3.14;93.88
10652;BME280;5374;42.742;23.266;2023-02-15T05:00:21;96739.97;;;3.15;92.64
10652;BME280;5374;42.742;23.266;2023-02-15T05:03:08;96741.13;;;3.13;93.46
10652;BME280;5374;42.742;23.266;2023-02-15T05:05:55;96744.56;;;3.13;94.31
10652;BME280;5374;42.742;23.266;2023-02-15T05:08:44;96748.81;;;3.14;93.41
10652;BME280;5374;42.742;23.266;2023-02-15T05:11:31;96743.69;;;3.21;92.71
10652;BME280;5374;42.742;23.266;2023-02-15T05:14:18;96744.50;;;3.21;92.69
10652;BME280;5374;42.742;23.266;2023-02-15T05:17:05;96715.75;;;2.97;92.64
10652;BME280;5374;42.742;23.266;2023-02-15T05:19:52;96758.94;;;3.25;92.22
10652;BME280;5374;42.742;23.266;2023-02-15T05:22:40;96655.59;;;2.56;92.54
10652;BME280;5374;42.742;23.266;2023-02-15T05:25:28;96752.22;;;3.23;92.06
10652;BME280;5374;42.742;23.266;2023-02-15T05:28:34;96728.19;;;3.03;91.57
10652;BME280;5374;42.742;23.266;2023-02-15T05:31:21;96751.56;;;3.21;91.59
10652;BME280;5374;42.742;23.266;2023-02-15T05:34:08;96776.47;;;3.33;91.75
10652;BME280;5374;42.742;23.266;2023-02-15T05:36:55;96777.59;;;3.38;91.23
10652;BME280;5374;42.742;23.266;2023-02-15T05:39:43;96767.25;;;3.37;91.01
10652;BME280;5374;42.742;23.266;2023-02-15T05:42:31;96764.16;;;3.33;90.62
10652;BME280;5374;42.742;23.266;2023-02-15T05:45:18;96777.69;;;3.45;89.95
10652;BME280;5374;42.742;23.266;2023-02-15T05:48:05;96784.59;;;3.46;89.84
10652;BME280;5374;42.742;23.266;2023-02-15T05:51:00;96793.41;;;3.53;89.82
10652;BME280;5374;42.742;23.266;2023-02-15T05:53:48;96784.03;;;3.59;89.39
10652;BME280;5374;42.742;23.266;2023-02-15T05:56:35;96779.44;;;3.61;88.38
10652;BME280;5374;42.742;23.266;2023-02-15T05:59:24;96791.38;;;3.63;88.26
10652;BME280;5374;42.742;23.266;2023-02-15T06:02:11;96791.50;;;3.70;87.67
10652;BME280;5374;42.742;23.266;2023-02-15T06:04:58;96793.16;;;3.71;88.39
10652;BME280;5374;42.742;23.266;2023-02-15T06:07:46;96790.97;;;3.83;87.37
10652;BME280;5374;42.742;23.266;2023-02-15T06:10:33;96794.03;;;3.86;86.77
10652;BME280;5374;42.742;23.266;2023-02-15T06:13:20;96772.84;;;3.88;86.05
10652;BME280;5374;42.742;23.266;2023-02-15T06:16:08;96795.63;;;3.95;86.22
10652;BME280;5374;42.742;23.266;2023-02-15T06:18:55;96792.81;;;3.97;86.31
10652;BME280;5374;42.742;23.266;2023-02-15T06:21:44;96774.59;;;3.95;85.05
10652;BME280;5374;42.742;23.266;2023-02-15T06:24:32;96796.31;;;4.12;85.47
10652;BME280;5374;42.742;23.266;2023-02-15T06:27:19;96803.22;;;4.13;83.87
10652;BME280;5374;42.742;23.266;2023-02-15T06:30:08;96795.69;;;4.10;83.92
10652;BME280;5374;42.742;23.266;2023-02-15T06:32:57;96778.91;;;4.11;83.96
10652;BME280;5374;42.742;23.266;2023-02-15T06:35:44;96791.66;;;4.22;83.24
10652;BME280;5374;42.742;23.266;2023-02-15T06:38:32;96775.13;;;4.13;83.20
10652;BME280;5374;42.742;23.266;2023-02-15T06:41:20;96784.50;;;4.31;82.94
10652;BME280;5374;42.742;23.266;2023-02-15T06:44:07;96793.28;;;4.46;82.35
10652;BME280;5374;42.742;23.266;2023-02-15T06:46:55;96802.34;;;4.58;81.05
10652;BME280;5374;42.742;23.266;2023-02-15T06:49:43;96780.84;;;4.55;81.19
10652;BME280;5374;42.742;23.266;2023-02-15T06:52:30;96782.25;;;4.65;80.33
10652;BME280;5374;42.742;23.266;2023-02-15T06:55:17;96792.22;;;4.70;80.37
10652;BME280;5374;42.742;23.266;2023-02-15T06:58:05;96765.34;;;4.60;79.53
10652;BME280;5374;42.742;23.266;2023-02-15T07:00:52;96713.97;;;4.34;79.35
10652;BME280;5374;42.742;23.266;2023-02-15T07:03:39;96778.97;;;4.78;79.34
10652;BME280;5374;42.742;23.266;2023-02-15T07:06:31;96798.25;;;4.93;78.72
10652;BME280;5374;42.742;23.266;2023-02-15T07:09:18;96800.53;;;4.96;78.49
10652;BME280;5374;42.742;23.266;2023-02-15T07:12:05;96785.53;;;4.97;78.00
10652;BME280;5374;42.742;23.266;2023-02-15T07:15:12;96803.44;;;5.16;77.32
10652;BME280;5374;42.742;23.266;2023-02-15T07:18:00;96794.22;;;5.27;76.28
10652;BME280;5374;42.742;23.266;2023-02-15T07:20:47;96806.13;;;5.23;76.45
10652;BME280;5374;42.742;23.266;2023-02-15T07:23:36;96792.78;;;5.24;75.89
10652;BME280;5374;42.742;23.266;2023-02-15T07:26:24;96800.41;;;5.34;75.32
10652;BME280;5374;42.742;23.266;2023-02-15T07:29:11;96811.59;;;5.36;75.39
10652;BME280;5374;42.742;23.266;2023-02-15T07:31:58;96787.50;;;5.24;75.22
10652;BME280;5374;42.742;23.266;2023-02-15T07:34:45;96801.13;;;5.42;74.76
10652;BME280;5374;42.742;23.266;2023-02-15T07:37:32;96801.47;;;5.54;74.60
10652;BME280;5374;42.742;23.266;2023-02-15T07:40:22;96797.75;;;5.63;74.53
10652;BME280;5374;42.742;23.266;2023-02-15T07:43:10;96795.09;;;5.63;74.03
10652;BME280;5374;42.742;23.266;2023-02-15T07:45:59;96788.03;;;5.64;74.18
10652;BME280;5374;42.742;23.266;2023-02-15T07:48:46;96784.44;;;5.71;73.92
10652;BME280;5374;42.742;23.266;2023-02-15T07:51:34;96789.88;;;5.84;73.15
10652;BME280;5374;42.742;23.266;2023-02-15T07:54:22;96777.63;;;5.77;73.24
10652;BME280;5374;42.742;23.266;2023-02-15T07:57:10;96780.06;;;5.78;73.13
10652;BME280;5374;42.742;23.266;2023-02-15T07:59:58;96781.84;;;5.57;73.31
10652;BME280;5374;42.742;23.266;2023-02-15T08:02:48;96785.56;;;5.62;72.86
10652;BME280;5374;42.742;23.266;2023-02-15T08:05:57;96788.53;;;5.74;72.66
10652;BME280;5374;42.742;23.266;2023-02-15T08:08:44;96787.91;;;5.72;72.70
10652;BME280;5374;42.742;23.266;2023-02-15T08:11:33;96782.13;;;5.62;71.59
10652;BME280;5374;42.742;23.266;2023-02-15T08:14:23;96785.38;;;5.64;71.70
10652;BME280;5374;42.742;23.266;2023-02-15T08:17:11;96774.72;;;5.72;71.75
10652;BME280;5374;42.742;23.266;2023-02-15T08:19:58;96794.16;;;5.86;71.43
10652;BME280;5374;42.742;23.266;2023-02-15T08:22:45;96788.31;;;5.90;70.96
10652;BME280;5374;42.742;23.266;2023-02-15T08:25:32;96789.69;;;5.86;70.40
10652;BME280;5374;42.742;23.266;2023-02-15T08:28:19;96790.84;;;5.98;69.98
10652;BME280;5374;42.742;23.266;2023-02-15T08:31:09;96781.34;;;5.82;69.59
10652;BME280;5374;42.742;23.266;2023-02-15T08:33:56;96793.59;;;5.90;69.39
10652;BME280;5374;42.742;23.266;2023-02-15T08:36:44;96792.03;;;5.96;69.10
10652;BME280;5374;42.742;23.266;2023-02-15T08:39:31;96800.47;;;6.06;69.04
10652;BME280;5374;42.742;23.266;2023-02-15T08:42:19;96795.88;;;6.14;68.10
10652;BME280;5374;42.742;23.266;2023-02-15T08:45:07;96792.13;;;6.02;67.57
10652;BME280;5374;42.742;23.266;2023-02-15T08:47:56;96800.50;;;6.12;67.18
10652;BME280;5374;42.742;23.266;2023-02-15T08:50:43;96780.13;;;6.21;66.69
10652;BME280;5374;42.742;23.266;2023-02-15T08:53:30;96803.84;;;6.21;66.47
10652;BME280;5374;42.742;23.266;2023-02-15T08:56:20;96784.38;;;6.22;66.20
10652;BME280;5374;42.742;23.266;2023-02-15T08:59:13;96758.25;;;6.27;65.95
10652;BME280;5374;42.742;23.266;2023-02-15T09:02:00;96790.00;;;6.62;65.68
10652;BME280;5374;42.742;23.266;2023-02-15T09:04:49;96797.25;;;6.81;64.89
10652;BME280;5374;42.742;23.266;2023-02-15T09:07:37;96791.63;;;6.91;64.15
10652;BME280;5374;42.742;23.266;2023-02-15T09:10:24;96789.25;;;6.96;63.89
10652;BME280;5374;42.742;23.266;2023-02-15T09:13:11;96788.44;;;7.02;63.72
10652;BME280;5374;42.742;23.266;2023-02-15T09:16:00;96792.06;;;6.94;63.08
10652;BME280;5374;42.742;23.266;2023-02-15T09:18:47;96785.53;;;6.90;63.45
10652;BME280;5374;42.742;23.266;2023-02-15T09:21:37;96791.41;;;7.20;63.23
10652;BME280;5374;42.742;23.266;2023-02-15T09:24:24;96773.56;;;7.29;62.17
10652;BME280;5374;42.742;23.266;2023-02-15T09:27:11;96787.88;;;7.41;62.33
10652;BME280;5374;42.742;23.266;2023-02-15T09:29:58;96791.09;;;7.36;61.80
10652;BME280;5374;42.742;23.266;2023-02-15T09:32:47;96798.72;;;7.59;61.51
10652;BME280;5374;42.742;23.266;2023-02-15T09:35:34;96798.16;;;7.77;60.43
10652;BME280;5374;42.742;23.266;2023-02-15T09:38:22;96800.25;;;7.88;60.16
10652;BME280;5374;42.742;23.266;2023-02-15T09:41:35;96793.75;;;7.97;59.84
10652;BME280;5374;42.742;23.266;2023-02-15T09:44:34;96793.97;;;8.02;60.09
10652;BME280;5374;42.742;23.266;2023-02-15T09:47:45;96789.94;;;8.13;59.42
10652;BME280;5374;42.742;23.266;2023-02-15T09:50:39;96799.09;;;8.10;58.56
10652;BME280;5374;42.742;23.266;2023-02-15T09:53:45;96782.00;;;8.19;58.30
10652;BME280;5374;42.742;23.266;2023-02-15T09:56:39;96784.25;;;8.29;58.36
10652;BME280;5374;42.742;23.266;2023-02-15T09:59:37;96786.53;;;8.39;57.93
10652;BME280;5374;42.742;23.266;2023-02-15T10:02:38;96788.19;;;8.53;57.35
10652;BME280;5374;42.742;23.266;2023-02-15T10:05:38;96783.28;;;8.56;57.06
10652;BME280;5374;42.742;23.266;2023-02-15T10:08:57;96780.03;;;8.35;57.17
10652;BME280;5374;42.742;23.266;2023-02-15T10:12:01;96771.63;;;8.31;57.24
10652;BME280;5374;42.742;23.266;2023-02-15T10:15:04;96781.44;;;8.37;57.23
10652;BME280;5374;42.742;23.266;2023-02-15T10:18:09;96785.91;;;8.37;56.92
10652;BME280;5374;42.742;23.266;2023-02-15T10:21:03;96777.75;;;8.38;56.98
10652;BME280;5374;42.742;23.266;2023-02-15T10:24:08;96778.00;;;8.50;57.13
10652;BME280;5374;42.742;23.266;2023-02-15T10:27:06;96783.06;;;8.65;56.66
10652;BME280;5374;42.742;23.266;2023-02-15T10:30:05;96775.94;;;8.85;55.66
10652;BME280;5374;42.742;23.266;2023-02-15T10:32:59;96770.84;;;8.83;56.15
10652;BME280;5374;42.742;23.266;2023-02-15T10:35:53;96770.63;;;8.85;55.97
10652;BME280;5374;42.742;23.266;2023-02-15T10:38:48;96763.31;;;8.80;55.89
10652;BME280;5374;42.742;23.266;2023-02-15T10:41:43;96753.53;;;8.74;55.62
10652;BME280;5374;42.742;23.266;2023-02-15T10:44:44;96752.34;;;8.57;56.39
10652;BME280;5374;42.742;23.266;2023-02-15T10:47:54;96751.72;;;8.55;56.85
10652;BME280;5374;42.742;23.266;2023-02-15T10:50:48;96749.25;;;8.67;55.92
10652;BME280;5374;42.742;23.266;2023-02-15T10:53:47;96747.81;;;8.84;55.84
10652;BME280;5374;42.742;23.266;2023-02-15T10:56:46;96750.41;;;9.17;56.45
10652;BME280;5374;42.742;23.266;2023-02-15T10:59:56;96740.75;;;9.29;54.56
10652;BME280;5374;42.742;23.266;2023-02-15T11:03:02;96743.19;;;9.37;54.75
10652;BME280;5374;42.742;23.266;2023-02-15T11:05:59;96742.19;;;9.32;54.14
10652;BME280;5374;42.742;23.266;2023-02-15T11:08:51;96742.91;;;9.58;54.80
10652;BME280;5374;42.742;23.266;2023-02-15T11:11:42;96742.06;;;9.65;53.67
10652;BME280;5374;42.742;23.266;2023-02-15T11:14:37;96746.94;;;9.68;53.84
10652;BME280;5374;42.742;23.266;2023-02-15T11:17:33;96734.41;;;9.81;53.60
10652;BME280;5374;42.742;23.266;2023-02-15T11:20:27;96743.00;;;9.77;53.37
10652;BME280;5374;42.742;23.266;2023-02-15T11:23:16;96746.69;;;9.76;52.86
10652;BME280;5374;42.742;23.266;2023-02-15T11:26:09;96741.78;;;9.79;53.38
10652;BME280;5374;42.742;23.266;2023-02-15T11:29:05;96737.88;;;9.82;53.29
10652;BME280;5374;42.742;23.266;2023-02-15T11:31:56;96733.09;;;9.66;53.06
10652;BME280;5374;42.742;23.266;2023-02-15T11:34:49;96739.09;;;9.86;53.11
10652;BME280;5374;42.742;23.266;2023-02-15T11:37:40;96733.19;;;9.84;52.76
10652;BME280;5374;42.742;23.266;2023-02-15T11:40:34;96734.41;;;9.88;52.02
10652;BME280;5374;42.742;23.266;2023-02-15T11:43:26;96742.97;;;9.90;51.87
10652;BME280;5374;42.742;23.266;2023-02-15T11:46:17;96734.56;;;9.93;51.73
10652;BME280;5374;42.742;23.266;2023-02-15T11:49:12;96730.28;;;9.92;51.58
10652;BME280;5374;42.742;23.266;2023-02-15T11:52:10;96730.34;;;9.79;51.37
10652;BME280;5374;42.742;23.266;2023-02-15T11:54:58;96726.69;;;9.80;51.79
10652;BME280;5374;42.742;23.266;2023-02-15T11:57:49;96729.84;;;9.64;51.87
10652;BME280;5374;42.742;23.266;2023-02-15T12:00:41;96728.19;;;9.69;51.73
10652;BME280;5374;42.742;23.266;2023-02-15T12:03:39;96704.50;;;9.68;51.98
10652;BME280;5374;42.742;23.266;2023-02-15T12:06:34;96717.59;;;9.63;52.18
10652;BME280;5374;42.742;23.266;2023-02-15T12:09:27;96689.38;;;9.37;52.20
10652;BME280;5374;42.742;23.266;2023-02-15T12:12:24;96698.25;;;9.55;52.33
10652;BME280;5374;42.742;23.266;2023-02-15T12:15:13;96696.63;;;9.54;52.92
10652;BME280;5374;42.742;23.266;2023-02-15T12:18:01;96701.91;;;9.54;52.68
10652;BME280;5374;42.742;23.266;2023-02-15T12:20:49;96690.88;;;9.57;52.77
10652;BME280;5374;42.742;23.266;2023-02-15T12:23:42;96692.13;;;9.55;52.87
10652;BME280;5374;42.742;23.266;2023-02-15T12:26:32;96673.66;;;9.42;52.43
10652;BME280;5374;42.742;23.266;2023-02-15T12:29:23;96696.28;;;9.44;51.70
10652;BME280;5374;42.742;23.266;2023-02-15T12:32:17;96691.63;;;9.33;52.33
10652;BME280;5374;42.742;23.266;2023-02-15T12:35:09;96694.88;;;9.35;52.21
10652;BME280;5374;42.742;23.266;2023-02-15T12:38:03;96684.47;;;9.40;52.05
10652;BME280;5374;42.742;23.266;2023-02-15T12:40:58;96682.41;;;9.42;51.71
10652;BME280;5374;42.742;23.266;2023-02-15T12:43:45;96682.44;;;9.36;52.07
10652;BME280;5374;42.742;23.266;2023-02-15T12:46:33;96669.66;;;9.26;52.57
10652;BME280;5374;42.742;23.266;2023-02-15T12:49:20;96665.75;;;9.29;52.55
10652;BME280;5374;42.742;23.266;2023-02-15T12:52:24;96670.22;;;9.28;52.50
10652;BME280;5374;42.742;23.266;2023-02-15T12:55:22;96660.69;;;9.20;52.92
10652;BME280;5374;42.742;23.266;2023-02-15T12:58:16;96666.81;;;9.14;52.90
10652;BME280;5374;42.742;23.266;2023-02-15T13:01:11;96650.13;;;9.14;52.99
10652;BME280;5374;42.742;23.266;2023-02-15T13:04:01;96645.59;;;9.21;52.53
10652;BME280;5374;42.742;23.266;2023-02-15T13:06:52;96659.28;;;9.18;52.23
10652;BME280;5374;42.742;23.266;2023-02-15T13:09:40;96661.31;;;9.16;52.63
10652;BME280;5374;42.742;23.266;2023-02-15T13:12:30;96655.63;;;9.12;52.77
10652;BME280;5374;42.742;23.266;2023-02-15T13:15:26;96656.13;;;8.83;52.99
10652;BME280;5374;42.742;23.266;2023-02-15T13:18:17;96639.03;;;8.79;53.17
10652;BME280;5374;42.742;23.266;2023-02-15T13:21:10;96651.84;;;8.88;52.81
10652;BME280;5374;42.742;23.266;2023-02-15T13:24:00;96657.31;;;8.94;52.83
10652;BME280;5374;42.742;23.266;2023-02-15T13:26:49;96645.75;;;8.81;52.73
10652;BME280;5374;42.742;23.266;2023-02-15T13:29:39;96647.19;;;8.77;53.05
10652;BME280;5374;42.742;23.266;2023-02-15T13:32:32;96645.78;;;8.75;53.19
10652;BME280;5374;42.742;23.266;2023-02-15T13:35:22;96644.16;;;8.67;53.27
10652;BME280;5374;42.742;23.266;2023-02-15T13:41:33;96666.81;;;8.56;54.04
10652;BME280;5374;42.742;23.266;2023-02-15T13:47:54;96666.00;;;8.43;54.33
10652;BME280;5374;42.742;23.266;2023-02-15T13:50:56;96648.69;;;8.27;54.83
10652;BME280;5374;42.742;23.266;2023-02-15T13:54:10;96658.66;;;8.25;54.75
10652;BME280;5374;42.742;23.266;2023-02-15T13:57:18;96661.91;;;8.14;54.95
10652;BME280;5374;42.742;23.266;2023-02-15T14:00:17;96673.91;;;8.03;55.62
10652;BME280;5374;42.742;23.266;2023-02-15T14:06:33;96668.03;;;8.01;55.95
10652;BME280;5374;42.742;23.266;2023-02-15T14:09:35;96683.88;;;8.01;55.93
10652;BME280;5374;42.742;23.266;2023-02-15T14:12:35;96679.41;;;7.95;56.06
10652;BME280;5374;42.742;23.266;2023-02-15T14:15:29;96682.44;;;7.92;56.14
10652;BME280;5374;42.742;23.266;2023-02-15T14:18:27;96688.75;;;7.91;56.63
10652;BME280;5374;42.742;23.266;2023-02-15T14:21:20;96686.72;;;7.80;56.81
10652;BME280;5374;42.742;23.266;2023-02-15T14:24:19;96691.38;;;7.71;56.73
10652;BME280;5374;42.742;23.266;2023-02-15T14:27:17;96688.53;;;7.73;57.02
10652;BME280;5374;42.742;23.266;2023-02-15T14:30:16;96691.97;;;7.73;56.84
10652;BME280;5374;42.742;23.266;2023-02-15T14:33:06;96686.06;;;7.71;57.14
10652;BME280;5374;42.742;23.266;2023-02-15T14:35:56;96689.94;;;7.69;56.81
10652;BME280;5374;42.742;23.266;2023-02-15T14:38:59;96672.66;;;7.60;56.80
10652;BME280;5374;42.742;23.266;2023-02-15T14:41:50;96669.94;;;7.46;57.15
10652;BME280;5374;42.742;23.266;2023-02-15T14:44:42;96675.28;;;7.53;57.37
10652;BME280;5374;42.742;23.266;2023-02-15T14:47:35;96667.53;;;7.45;57.32
10652;BME280;5374;42.742;23.266;2023-02-15T14:50:39;96684.22;;;7.52;57.51
10652;BME280;5374;42.742;23.266;2023-02-15T14:53:45;96681.16;;;7.48;57.61
10652;BME280;5374;42.742;23.266;2023-02-15T14:56:33;96679.94;;;7.44;57.71
10652;BME280;5374;42.742;23.266;2023-02-15T14:59:21;96680.09;;;7.36;57.92
10652;BME280;5374;42.742;23.266;2023-02-15T15:02:13;96682.91;;;7.28;58.23
10652;BME280;5374;42.742;23.266;2023-02-15T15:05:07;96661.16;;;7.19;58.31
10652;BME280;5374;42.742;23.266;2023-02-15T15:07:57;96681.69;;;7.17;58.45
10652;BME280;5374;42.742;23.266;2023-02-15T15:10:47;96681.25;;;7.14;58.80
10652;BME280;5374;42.742;23.266;2023-02-15T15:16:51;96668.34;;;6.91;59.23
10652;BME280;5374;42.742;23.266;2023-02-15T15:20:04;96683.97;;;6.86;59.66
10652;BME280;5374;42.742;23.266;2023-02-15T15:26:24;96671.22;;;6.62;60.15
10652;BME280;5374;42.742;23.266;2023-02-15T15:29:12;96661.81;;;6.46;60.27
10652;BME280;5374;42.742;23.266;2023-02-15T15:31:59;96679.41;;;6.39;60.67
10652;BME280;5374;42.742;23.266;2023-02-15T15:35:04;96691.59;;;6.40;61.04
10652;BME280;5374;42.742;23.266;2023-02-15T15:38:14;96693.97;;;6.28;61.30
10652;BME280;5374;42.742;23.266;2023-02-15T15:41:18;96693.84;;;6.15;61.62
10652;BME280;5374;42.742;23.266;2023-02-15T15:47:42;96693.41;;;5.90;62.44
10652;BME280;5374;42.742;23.266;2023-02-15T15:50:33;96694.97;;;5.84;62.56